South Lorain, Ohio
Current Conditions -  °F | °C
As of 10:53 PM on Sunday 25 Jan 2015 (Local Time) from KLPR Reporting Station
Light Snow Light Snow  
Wind Chill:   Ceiling: 2200
Heat Index: 20°   Visibility: 1.5mi
Dew Point: 16°   Wind: 20mph
Humidity: 85%   Direction: 60°ENE
Pressure: 29.89"   Gusts: 26mph
Location:  41.4372°N, 82.1333°W
Report Text: KLPR 260353Z AUTO 06017G23KT 1 1/2SM -SN BR OVC022 M07/M09 A2989 RMK AO2 SLP132 P0000 T10671089 TSNO
Loading
Personal Weather Stations






























Interactive Weather Map New forecast layout! Learn more

10-Day Weather Forecast

Advertisements
Track Severe Weather on mobile